Forside
METAR-TAF:

METAR-TAF

Lufthavne :

Oshima, Japan

Breddekreds: 34-47N, længdekreds: 139-22E, højde: 38 m

Aktuelle vejr

Denne rapport blev lavet for 8 timer og 32 minutter siden, kl. 23:00 UTC
Vind 5 kt fra varierende retninger med vindstød på up til 15 kt
Temperatur 11°C
Fugtighed 62%
Tryk 1019 hPa
Sigt 10 km eller mere
Nogle få skyer i en højde af 2500 ft
Spredte skyer i en højde af 3500 ft
Brudte skyer i en højde af 6000 ft

METAR: RJTO 282300Z VRB05G15KT 9999 FEW025 SCT035 BKN060 11/04 Q1019

Tid: 16:32 (07:32 UTC)


TAF: fraværende

Vejrobservationer og prognoser fra mere end 4000 lufthavne (METAR og TAF).

De gule og røde prikker repræsenterer de meteorologiske stationer.

Flyt musen over at se navnet på stationen.

Så klik over at se vejr observationer og prognoser.

At skifte det kort: Klik på de grønne knapper med et sort kors for at zoome ind; på den grønne knap med en bindestreg for at zoome ud; eller på de grønne pile for tilstødende kort.


METAR-TAF: